Time;durP1;ratioP1;P1;durP2;ratioP2;P2;SDS_P1;SDS_P2;PMS_P1;PMS_P2;Temp;Humidity;BMP_temperature;BMP_pressure;BME280_temperature;BME280_humidity;BME280_pressure;Samples;Min_cycle;Max_cycle;Signal;HPM_P1;HPM_P2
2024/02/11 00:01:08;;;;;;;3.60;2.10;;;;;;;12.46;51.02;92017.03;5072950;28;20139;-75
2024/02/11 00:03:37;;;;;;;5.88;2.00;;;;;;;12.36;51.47;92033.97;5072122;28;20140;-75
2024/02/11 00:06:06;;;;;;;5.43;2.30;;;;;;;12.34;51.32;92023.16;5070442;28;20047;-75
2024/02/11 00:08:33;;;;;;;6.55;2.25;;;;;;;12.40;51.06;92024.72;5071819;28;20060;-75
2024/02/11 00:11:00;;;;;;;7.20;2.50;;;;;;;12.50;50.95;92025.81;5074984;28;20179;-75
2024/02/11 00:13:31;;;;;;;5.68;1.60;;;;;;;12.30;51.06;92024.66;5070799;28;20085;-75
2024/02/11 00:15:58;;;;;;;7.10;2.70;;;;;;;12.36;51.14;92040.94;5070397;28;20080;-75
2024/02/11 00:18:28;;;;;;;11.88;2.80;;;;;;;12.36;51.33;92039.13;5077054;28;20101;-75
2024/02/11 00:20:55;;;;;;;8.50;2.53;;;;;;;12.32;51.47;92032.94;5076303;28;20056;-75
2024/02/11 00:23:23;;;;;;;5.05;2.08;;;;;;;12.32;51.78;92019.28;5070592;28;20052;-75
2024/02/11 00:25:53;;;;;;;8.45;2.10;;;;;;;12.27;52.25;92018.22;5075015;28;20052;-75
2024/02/11 00:28:21;;;;;;;5.28;1.77;;;;;;;12.16;52.24;92019.97;5069044;28;20452;-75
2024/02/11 00:30:49;;;;;;;6.25;1.98;;;;;;;12.11;52.95;92008.84;5069551;28;20041;-75
2024/02/11 00:33:19;;;;;;;6.43;1.80;;;;;;;12.06;52.60;92007.03;5074563;28;20053;-76
2024/02/11 00:35:48;;;;;;;3.45;1.80;;;;;;;12.13;52.69;91989.56;5068926;28;20832;-75
2024/02/11 00:38:16;;;;;;;7.13;2.45;;;;;;;12.07;52.52;91997.53;5079208;28;20054;-75
2024/02/11 00:40:43;;;;;;;8.95;2.13;;;;;;;12.14;52.52;91992.94;5073236;28;20055;-75
2024/02/11 00:43:11;;;;;;;5.15;2.17;;;;;;;11.98;52.50;91982.50;5073671;28;20062;-75
2024/02/11 00:45:38;;;;;;;6.40;2.22;;;;;;;12.06;53.26;91993.38;5075421;28;20093;-75
2024/02/11 00:48:08;;;;;;;7.20;2.00;;;;;;;12.01;52.69;91978.66;5068270;28;20055;-75
2024/02/11 00:50:34;;;;;;;6.05;1.90;;;;;;;11.97;52.69;91980.19;5071501;28;20127;-75
2024/02/11 00:53:02;;;;;;;6.10;2.25;;;;;;;12.06;53.00;91996.75;5069385;28;20052;-75
2024/02/11 00:55:30;;;;;;;4.57;2.05;;;;;;;12.09;52.64;91998.03;5069712;28;20055;-75
2024/02/11 00:57:57;;;;;;;5.88;2.13;;;;;;;12.01;53.02;91984.59;5073959;28;20065;-75
2024/02/11 01:00:24;;;;;;;4.90;2.30;;;;;;;11.98;52.90;91985.09;5071415;28;20164;-75
2024/02/11 01:02:51;;;;;;;5.63;2.40;;;;;;;12.01;52.89;91983.81;5068458;28;20058;-75
2024/02/11 01:05:22;;;;;;;10.48;2.55;;;;;;;12.03;53.01;91987.69;5071746;28;20404;-74
2024/02/11 01:07:50;;;;;;;7.18;2.30;;;;;;;12.08;52.79;91988.78;5072165;28;20127;-75
2024/02/11 01:10:17;;;;;;;6.05;2.05;;;;;;;11.93;52.77;91974.75;5074649;28;20045;-75
2024/02/11 01:12:46;;;;;;;6.15;2.00;;;;;;;12.03;52.13;91981.75;5072964;28;20498;-74
2024/02/11 01:15:16;;;;;;;13.80;3.03;;;;;;;12.01;52.23;91969.16;5071933;28;20044;-74
2024/02/11 01:17:44;;;;;;;9.98;2.05;;;;;;;12.00;52.21;91982.28;5073795;28;20048;-74
2024/02/11 01:20:13;;;;;;;3.72;1.60;;;;;;;12.14;51.87;91987.78;5070079;28;20135;-74
2024/02/11 01:22:43;;;;;;;7.03;1.80;;;;;;;12.21;51.70;91982.41;5069808;28;20088;-74
2024/02/11 01:25:10;;;;;;;6.05;2.55;;;;;;;12.08;51.36;91966.38;5076533;28;20605;-74
2024/02/11 01:27:38;;;;;;;11.75;2.80;;;;;;;12.12;51.22;91969.22;5070939;28;20519;-74
2024/02/11 01:30:08;;;;;;;7.50;1.88;;;;;;;12.17;51.45;91976.97;5074159;28;20044;-75
2024/02/11 01:32:35;;;;;;;4.97;1.90;;;;;;;12.19;51.44;91980.09;5071954;28;20048;-74
2024/02/11 01:35:02;;;;;;;9.63;2.53;;;;;;;12.09;51.60;91975.63;5075793;28;20052;-74
2024/02/11 01:37:29;;;;;;;6.88;1.98;;;;;;;12.17;51.95;91976.97;5073588;28;20051;-74
2024/02/11 01:39:58;;;;;;;5.13;1.90;;;;;;;12.31;51.52;91963.66;5068650;28;20078;-75
2024/02/11 01:42:25;;;;;;;4.80;1.83;;;;;;;12.14;50.65;91955.06;5068997;28;20091;-75
2024/02/11 01:44:52;;;;;;;4.38;1.38;;;;;;;12.22;50.66;91940.19;5076763;28;20738;-74
2024/02/11 01:47:19;;;;;;;7.43;2.28;;;;;;;12.25;50.74;91940.47;5071901;28;20052;-74
2024/02/11 01:49:47;;;;;;;6.93;1.92;;;;;;;12.42;50.28;91931.78;5074729;28;20053;-74
2024/02/11 01:52:15;;;;;;;6.93;1.83;;;;;;;12.37;50.40;91931.75;5069211;28;20055;-75
2024/02/11 01:54:43;;;;;;;10.98;2.53;;;;;;;12.38;49.97;91934.09;5067197;28;20052;-75
2024/02/11 01:57:11;;;;;;;4.40;1.77;;;;;;;12.47;49.70;91938.72;5070039;28;20080;-75
2024/02/11 01:59:39;;;;;;;4.60;2.13;;;;;;;12.22;49.91;91938.38;5069086;28;20070;-75
2024/02/11 02:02:13;;;;;;;4.25;1.92;;;;;;;12.19;50.48;91941.47;5070819;28;20048;-75
2024/02/11 02:04:40;;;;;;;7.13;2.40;;;;;;;12.09;50.30;91931.13;5068848;28;20045;-75
2024/02/11 02:07:08;;;;;;;6.45;2.20;;;;;;;12.32;49.98;91919.66;5068394;28;20047;-74
2024/02/11 02:09:37;;;;;;;8.23;2.10;;;;;;;12.16;50.39;91911.06;5069510;28;20049;-74
2024/02/11 02:12:06;;;;;;;5.57;2.30;;;;;;;12.18;50.30;91892.81;5076348;28;20079;-74
2024/02/11 02:14:35;;;;;;;5.68;1.83;;;;;;;12.24;49.51;91913.19;5072093;28;20485;-74
2024/02/11 02:17:02;;;;;;;6.25;1.63;;;;;;;12.16;49.65;91914.44;5082584;28;20078;-75
2024/02/11 02:19:29;;;;;;;10.68;2.10;;;;;;;12.17;49.73;91907.47;5074974;28;20380;-75
2024/02/11 02:21:57;;;;;;;6.47;2.03;;;;;;;12.35;49.89;91906.25;5077540;28;20058;-74
2024/02/11 02:24:24;;;;;;;12.95;2.20;;;;;;;12.23;50.06;91905.69;5069630;28;20415;-74
2024/02/11 02:26:51;;;;;;;4.85;2.10;;;;;;;12.37;50.38;91913.72;5070095;28;20048;-74
2024/02/11 02:29:18;;;;;;;5.38;1.83;;;;;;;12.18;50.70;91892.81;5071982;28;20052;-75
2024/02/11 02:31:45;;;;;;;6.20;2.10;;;;;;;12.06;50.93;91908.44;5075027;28;20052;-74
2024/02/11 02:34:14;;;;;;;6.38;1.70;;;;;;;12.24;50.85;91920.91;5069579;28;20044;-75
2024/02/11 02:36:41;;;;;;;4.78;1.83;;;;;;;12.24;50.62;91927.84;5069160;28;20052;-74
2024/02/11 02:39:13;;;;;;;6.15;1.80;;;;;;;12.37;50.72;91929.94;5074527;28;20048;-74
2024/02/11 02:41:40;;;;;;;4.18;1.63;;;;;;;12.16;50.65;91953.03;5069806;28;20832;-75
2024/02/11 02:44:08;;;;;;;5.28;2.10;;;;;;;12.23;51.03;91939.16;5074202;28;20051;-75
2024/02/11 02:46:35;;;;;;;5.40;1.50;;;;;;;12.26;50.70;91942.00;5071978;28;20046;-75
2024/02/11 02:49:02;;;;;;;14.43;2.25;;;;;;;12.22;51.14;91930.66;5067848;28;20141;-75
2024/02/11 02:51:28;;;;;;;6.13;2.08;;;;;;;12.20;51.38;91929.34;5073041;28;20040;-74
2024/02/11 02:53:55;;;;;;;7.68;2.00;;;;;;;12.27;51.22;91919.63;5070572;28;20040;-74
2024/02/11 02:56:26;;;;;;;7.32;1.75;;;;;;;12.24;51.38;91933.00;5066784;28;20044;-75
2024/02/11 02:58:53;;;;;;;8.50;2.17;;;;;;;12.06;51.55;91903.31;5072976;28;20048;-75
2024/02/11 03:01:22;;;;;;;6.15;2.05;;;;;;;12.09;51.96;91918.25;5075379;28;20045;-74
2024/02/11 03:03:50;;;;;;;6.60;2.00;;;;;;;12.27;51.75;91935.06;5066855;28;20053;-75
2024/02/11 03:06:17;;;;;;;5.15;2.10;;;;;;;12.08;51.53;91919.28;5072876;28;20060;-74
2024/02/11 03:08:44;;;;;;;4.75;1.92;;;;;;;12.15;51.83;91920.59;5072684;28;20079;-74
2024/02/11 03:11:11;;;;;;;3.85;1.65;;;;;;;12.28;51.38;91931.47;5074084;28;20048;-74
2024/02/11 03:13:40;;;;;;;6.97;2.58;;;;;;;12.31;51.42;91919.88;5072474;28;20555;-74
2024/02/11 03:16:08;;;;;;;8.13;1.95;;;;;;;12.32;51.49;91932.53;5071805;28;20407;-75
2024/02/11 03:18:34;;;;;;;6.30;2.20;;;;;;;12.22;51.18;91924.75;5074509;28;20076;-74
2024/02/11 03:21:01;;;;;;;4.97;2.08;;;;;;;12.25;51.81;91916.50;5073974;28;20044;-74
2024/02/11 03:23:28;;;;;;;7.18;1.70;;;;;;;12.32;51.39;91921.44;5076904;28;20052;-75
2024/02/11 03:25:55;;;;;;;4.38;2.10;;;;;;;12.25;51.44;91916.50;5073341;28;20423;-74
2024/02/11 03:28:22;;;;;;;5.60;1.67;;;;;;;12.15;51.60;91920.59;5076521;28;20147;-74
2024/02/11 03:30:51;;;;;;;6.38;1.92;;;;;;;12.22;52.02;91909.31;5072323;28;20483;-74
2024/02/11 03:33:18;;;;;;;5.53;1.67;;;;;;;12.16;52.11;91919.56;5073124;28;20059;-74
2024/02/11 03:35:46;;;;;;;7.07;2.50;;;;;;;12.21;52.05;91923.97;5072233;28;20051;-74
2024/02/11 03:38:15;;;;;;;4.90;1.92;;;;;;;12.31;51.89;91923.22;5073959;28;20045;-74
2024/02/11 03:40:42;;;;;;;5.47;1.80;;;;;;;12.24;52.14;91933.00;5071053;28;20051;-74
2024/02/11 03:43:11;;;;;;;3.70;1.50;;;;;;;12.24;51.32;91920.91;5070827;28;20044;-74
2024/02/11 03:45:38;;;;;;;8.57;1.98;;;;;;;12.17;51.78;91928.06;5071892;28;20744;-74
2024/02/11 03:48:08;;;;;;;4.55;1.95;;;;;;;12.33;51.57;91933.28;5082177;28;20048;-74
2024/02/11 03:50:35;;;;;;;4.43;1.80;;;;;;;12.18;52.24;91911.59;5069128;28;20500;-74
2024/02/11 03:53:02;;;;;;;4.30;1.88;;;;;;;12.28;52.34;91924.50;5076157;28;20044;-75
2024/02/11 03:55:29;;;;;;;4.93;2.05;;;;;;;12.27;52.96;91924.78;5070239;28;20048;-75
2024/02/11 04:01:05;;;;;;;9.27;2.10;;;;;;;12.34;53.53;91925.31;5047342;28;20138;-74
2024/02/11 04:03:33;;;;;;;4.13;1.77;;;;;;;12.11;54.15;91929.06;5068785;28;20136;-75
2024/02/11 04:06:01;;;;;;;6.75;2.30;;;;;;;12.05;54.62;91938.56;5076428;28;20048;-75
2024/02/11 04:08:29;;;;;;;7.47;2.10;;;;;;;12.20;54.71;91925.00;5078420;28;20709;-75
2024/02/11 04:10:59;;;;;;;7.22;2.40;;;;;;;12.01;55.68;91922.84;5075197;28;20048;-75
2024/02/11 04:13:26;;;;;;;4.45;2.58;;;;;;;12.07;55.86;91933.94;5073839;28;20135;-75
2024/02/11 04:15:56;;;;;;;6.93;2.38;;;;;;;11.93;56.94;91925.09;5069817;28;20048;-75
2024/02/11 04:18:23;;;;;;;6.85;2.17;;;;;;;11.79;57.39;91902.38;5071558;28;20079;-75
2024/02/11 04:21:05;;;;;;;8.30;2.67;;;;;;;11.57;58.11;91843.38;5072443;28;20048;-74
2024/02/11 04:23:32;;;;;;;8.00;2.85;;;;;;;11.92;58.27;91900.38;5073886;28;20056;-75
2024/02/11 04:26:01;;;;;;;5.45;2.17;;;;;;;11.89;58.52;91902.44;5072776;28;20044;-74
2024/02/11 04:28:28;;;;;;;7.07;2.40;;;;;;;11.95;59.24;91907.59;5070293;28;20052;-74
2024/02/11 04:30:55;;;;;;;7.68;2.05;;;;;;;11.71;59.54;91890.75;5071879;28;20063;-74
2024/02/11 04:33:22;;;;;;;8.95;2.15;;;;;;;11.73;60.44;91880.22;5073791;28;20558;-75
2024/02/11 04:35:49;;;;;;;5.68;2.35;;;;;;;11.90;60.06;91878.25;5069662;28;20059;-74
2024/02/11 04:38:18;;;;;;;4.78;2.13;;;;;;;11.81;59.70;91878.97;5070997;28;20052;-74
2024/02/11 04:40:45;;;;;;;4.68;2.05;;;;;;;11.68;60.09;91865.53;5071311;28;20045;-74
2024/02/11 04:43:12;;;;;;;8.25;2.15;;;;;;;11.64;59.71;91872.19;5069347;28;20048;-73
2024/02/11 04:45:39;;;;;;;12.90;2.90;;;;;;;11.63;60.09;91866.28;5076234;28;20164;-74
2024/02/11 04:48:09;;;;;;;5.10;2.13;;;;;;;11.71;60.15;91865.03;5078128;28;20048;-74
2024/02/11 04:50:36;;;;;;;8.85;2.20;;;;;;;11.71;60.41;91856.56;5076339;28;20055;-73
2024/02/11 04:53:07;;;;;;;8.15;2.30;;;;;;;11.60;60.39;91871.16;5070565;28;20044;-73
2024/02/11 04:55:39;;;;;;;9.60;2.63;;;;;;;11.75;59.75;91860.16;5070760;28;20052;-74
2024/02/11 04:58:13;;;;;;;8.13;2.65;;;;;;;11.71;59.78;91854.75;5076414;28;20052;-74
2024/02/11 05:00:40;;;;;;;5.97;2.55;;;;;;;11.80;59.45;91867.91;5072753;28;20044;-74
2024/02/11 05:03:08;;;;;;;11.23;3.00;;;;;;;11.78;59.44;91869.97;5071390;28;20045;-74
2024/02/11 05:05:37;;;;;;;9.25;2.70;;;;;;;11.78;59.77;91875.09;5072657;28;20049;-74
2024/02/11 05:08:10;;;;;;;6.65;2.33;;;;;;;11.84;59.42;91878.47;5069482;28;20094;-74
2024/02/11 05:10:40;;;;;;;5.07;2.70;;;;;;;11.90;59.85;91883.38;5070929;28;20123;-74
2024/02/11 05:13:08;;;;;;;5.25;2.85;;;;;;;11.82;60.55;91876.16;5070545;28;20048;-74
2024/02/11 05:15:37;;;;;;;5.82;2.53;;;;;;;11.96;60.19;91891.13;5073994;28;20048;-74
2024/02/11 05:18:04;;;;;;;5.65;2.35;;;;;;;11.80;60.61;91885.16;5075757;28;20432;-73
2024/02/11 05:20:31;;;;;;;6.78;2.85;;;;;;;11.88;60.02;91902.69;5071106;28;20436;-74
2024/02/11 05:23:00;;;;;;;5.85;2.63;;;;;;;12.07;60.21;91920.31;5068448;28;20047;-74
2024/02/11 05:25:29;;;;;;;6.35;2.63;;;;;;;12.08;59.35;91907.16;5074623;28;20051;-74
2024/02/11 05:27:59;;;;;;;4.43;1.70;;;;;;;12.07;59.53;91905.63;5071541;28;20059;-74
2024/02/11 05:30:27;;;;;;;5.70;2.25;;;;;;;12.04;59.00;91901.00;5070621;28;20041;-74
2024/02/11 05:32:56;;;;;;;6.00;2.00;;;;;;;12.04;58.71;91901.00;5082281;28;20432;-74
2024/02/11 05:35:24;;;;;;;6.53;2.50;;;;;;;12.18;58.96;91914.19;5069442;28;20048;-74
2024/02/11 05:37:57;;;;;;;4.25;2.20;;;;;;;11.86;59.88;91894.44;5069725;28;20140;-74
2024/02/11 05:40:25;;;;;;;6.72;2.15;;;;;;;11.82;60.81;91919.13;5082555;28;20048;-74
2024/02/11 05:42:52;;;;;;;7.15;2.65;;;;;;;11.83;60.73;91898.28;5069280;28;20493;-74
2024/02/11 05:45:21;;;;;;;6.78;2.75;;;;;;;11.86;61.46;91890.06;5072227;28;20055;-74
2024/02/11 05:47:48;;;;;;;8.80;2.10;;;;;;;11.96;61.65;91922.81;5070002;28;20050;-74
2024/02/11 05:50:16;;;;;;;6.45;2.33;;;;;;;12.08;61.02;91929.56;5071157;28;20054;-74
2024/02/11 05:52:43;;;;;;;7.88;2.67;;;;;;;12.06;61.46;91911.03;5067872;28;20080;-74
2024/02/11 05:55:12;;;;;;;6.82;2.20;;;;;;;12.08;61.50;91940.63;5070925;28;20056;-74
2024/02/11 05:57:40;;;;;;;8.82;2.28;;;;;;;12.08;61.76;91932.91;5073989;28;20853;-74
2024/02/11 06:00:11;;;;;;;6.30;2.20;;;;;;;12.16;61.71;91931.66;5068160;28;20045;-74
2024/02/11 06:02:41;;;;;;;7.78;2.72;;;;;;;12.23;61.11;91939.94;5070485;28;20784;-75
2024/02/11 06:05:12;;;;;;;3.78;2.10;;;;;;;12.29;60.69;91933.78;5075630;28;20051;-74
2024/02/11 06:07:39;;;;;;;3.60;1.85;;;;;;;12.31;60.32;91928.38;5068124;28;20045;-74
2024/02/11 06:10:06;;;;;;;5.78;2.20;;;;;;;12.23;60.76;91931.44;5068257;28;20462;-74
2024/02/11 06:12:33;;;;;;;8.05;2.38;;;;;;;12.36;60.80;91935.38;5071990;28;20044;-74
2024/02/11 06:15:00;;;;;;;4.97;2.30;;;;;;;12.31;61.30;91938.66;5068349;28;20070;-74
2024/02/11 06:17:27;;;;;;;7.50;2.40;;;;;;;12.27;61.94;91929.91;5069594;28;20044;-74
2024/02/11 06:19:55;;;;;;;6.43;2.30;;;;;;;12.12;62.32;91892.00;5067774;28;20058;-73
2024/02/11 06:22:25;;;;;;;3.85;2.20;;;;;;;12.26;62.24;91924.00;5075582;28;20054;-74
2024/02/11 06:24:52;;;;;;;8.32;2.97;;;;;;;12.21;62.17;91925.78;5074007;28;20654;-73
2024/02/11 06:27:19;;;;;;;14.77;3.53;;;;;;;12.19;62.11;91920.09;5073336;28;20056;-73
2024/02/11 06:29:46;;;;;;;5.68;2.15;;;;;;;12.25;62.54;91919.09;5071665;28;20500;-73
2024/02/11 06:32:13;;;;;;;6.50;2.20;;;;;;;12.34;62.12;91938.19;5068862;28;20071;-73
2024/02/11 06:34:41;;;;;;;6.60;2.40;;;;;;;12.34;62.32;91921.94;5069191;28;20048;-74
2024/02/11 06:37:10;;;;;;;7.85;3.28;;;;;;;12.41;61.97;91945.69;5069695;28;20393;-73
2024/02/11 06:39:38;;;;;;;5.05;2.15;;;;;;;12.37;61.87;91908.59;5078889;28;20110;-73
2024/02/11 06:42:09;;;;;;;9.38;2.50;;;;;;;12.39;62.11;91909.88;5072610;28;20052;-73
2024/02/11 06:44:38;;;;;;;11.80;2.90;;;;;;;12.45;61.77;91913.22;5072516;28;20566;-73
2024/02/11 06:47:08;;;;;;;10.77;2.90;;;;;;;12.43;62.42;91918.66;5071192;28;20523;-73
2024/02/11 06:49:37;;;;;;;10.65;3.15;;;;;;;12.37;62.47;91918.88;5070937;28;20110;-73
2024/02/11 06:52:04;;;;;;;10.63;3.15;;;;;;;12.43;62.54;91918.66;5073184;28;20576;-73
2024/02/11 06:54:34;;;;;;;10.55;3.15;;;;;;;12.51;61.50;91924.34;5074783;28;20503;-73
2024/02/11 06:57:00;;;;;;;8.02;2.92;;;;;;;12.54;62.36;91932.31;5073733;28;20488;-77
2024/02/11 06:59:29;;;;;;;5.93;3.05;;;;;;;12.50;62.02;91940.81;5071371;28;20044;-73
2024/02/11 07:01:56;;;;;;;6.50;2.70;;;;;;;12.65;62.05;91937.50;5070506;28;20432;-74
2024/02/11 07:04:24;;;;;;;6.65;2.97;;;;;;;12.73;61.83;91944.72;5081831;28;20052;-74
2024/02/11 07:06:53;;;;;;;9.85;3.35;;;;;;;12.71;61.71;91949.38;5073886;28;20070;-74
2024/02/11 07:09:22;;;;;;;7.80;3.28;;;;;;;12.83;62.23;91949.16;5069938;28;20048;-74
2024/02/11 07:11:51;;;;;;;5.45;2.95;;;;;;;12.86;62.56;91956.38;5071569;28;20512;-74
2024/02/11 07:14:18;;;;;;;8.93;3.05;;;;;;;12.85;62.22;91931.63;5074800;28;20094;-74
2024/02/11 07:16:46;;;;;;;6.07;2.70;;;;;;;12.78;62.62;91934.44;5070792;28;20044;-74
2024/02/11 07:19:13;;;;;;;7.85;2.35;;;;;;;12.92;61.70;91921.09;5076884;28;20875;-74
2024/02/11 07:21:42;;;;;;;11.35;3.47;;;;;;;12.97;61.41;91921.09;5074806;28;20037;-74
2024/02/11 07:24:10;;;;;;;5.45;2.92;;;;;;;13.00;61.11;91923.13;5082571;28;20048;-74
2024/02/11 07:26:38;;;;;;;5.65;2.33;;;;;;;13.17;61.47;91909.22;5073050;28;20071;-74
2024/02/11 07:29:08;;;;;;;8.02;3.30;;;;;;;13.16;61.12;91890.44;5072117;28;20059;-74
2024/02/11 07:31:37;;;;;;;6.13;2.70;;;;;;;13.27;61.45;91908.47;5076719;28;20040;-74
2024/02/11 07:34:05;;;;;;;8.90;3.05;;;;;;;13.26;62.46;91920.59;5075456;28;20052;-74
2024/02/11 07:36:32;;;;;;;6.72;2.40;;;;;;;13.22;63.42;91916.97;5076301;28;20124;-74
2024/02/11 07:38:59;;;;;;;9.77;2.53;;;;;;;13.24;63.63;91917.47;5075851;28;20841;-74
2024/02/11 07:41:25;;;;;;;4.43;2.30;;;;;;;13.15;64.16;91917.22;5071962;28;20131;-74
2024/02/11 07:43:54;;;;;;;6.78;3.28;;;;;;;13.09;64.15;91913.09;5074056;28;20516;-74
2024/02/11 07:46:22;;;;;;;12.10;5.00;;;;;;;13.09;64.74;91919.03;5079561;28;20055;-74
2024/02/11 07:49:03;;;;;;;20.95;6.35;;;;;;;13.29;63.89;91927.03;5071354;28;20096;-74
2024/02/11 07:51:30;;;;;;;11.13;4.40;;;;;;;13.23;64.63;91929.63;5075148;28;20686;-74
2024/02/11 07:53:57;;;;;;;10.85;5.03;;;;;;;13.10;64.57;91928.31;5077120;28;20133;-74
2024/02/11 07:56:25;;;;;;;12.18;4.85;;;;;;;13.26;64.60;91918.00;5070222;28;20057;-74
2024/02/11 07:58:52;;;;;;;6.13;2.40;;;;;;;13.29;64.13;91911.56;5072267;28;20044;-74
2024/02/11 08:01:19;;;;;;;4.65;2.20;;;;;;;13.31;63.90;91902.53;5071615;28;20165;-74
2024/02/11 08:03:47;;;;;;;11.38;3.55;;;;;;;13.47;63.02;91903.31;5076602;28;20507;-74
2024/02/11 08:06:14;;;;;;;6.38;2.08;;;;;;;13.46;62.29;91903.56;5072223;28;20525;-74
2024/02/11 08:08:41;;;;;;;11.13;3.58;;;;;;;13.44;61.66;91885.78;5070846;28;20043;-74
2024/02/11 08:11:09;;;;;;;14.43;3.90;;;;;;;13.55;61.55;91898.66;5070585;28;20067;-74
2024/02/11 08:13:37;;;;;;;7.97;2.90;;;;;;;13.63;61.83;91898.94;5073320;28;20479;-75
2024/02/11 08:16:05;;;;;;;12.45;2.83;;;;;;;13.66;61.74;91914.94;5074246;28;20046;-75
2024/02/11 08:18:31;;;;;;;6.65;3.15;;;;;;;13.58;61.85;91911.06;5074496;28;20051;-74
2024/02/11 08:21:00;;;;;;;8.20;3.28;;;;;;;13.54;62.97;91908.22;5076209;28;20865;-74
2024/02/11 08:23:27;;;;;;;6.78;2.35;;;;;;;13.47;63.75;91887.84;5072068;28;20054;-74
2024/02/11 08:25:55;;;;;;;11.20;3.10;;;;;;;13.64;63.39;91894.53;5068521;28;20070;-74
2024/02/11 08:28:27;;;;;;;6.43;2.55;;;;;;;13.66;63.47;91886.53;5076035;28;20048;-74
2024/02/11 08:30:54;;;;;;;10.32;3.40;;;;;;;13.63;63.23;91882.69;5074225;28;20044;-74
2024/02/11 08:33:21;;;;;;;8.15;1.95;;;;;;;13.62;63.92;91899.19;5069550;28;20048;-74
2024/02/11 08:35:48;;;;;;;8.48;2.60;;;;;;;13.49;64.52;91879.84;5071296;28;20040;-74
2024/02/11 08:38:17;;;;;;;8.93;2.40;;;;;;;13.68;64.84;91913.63;5074087;28;20051;-73
2024/02/11 08:40:44;;;;;;;6.97;2.33;;;;;;;13.68;65.05;91915.44;5077172;28;20050;-74
2024/02/11 08:43:11;;;;;;;10.10;2.65;;;;;;;13.64;64.58;91922.91;5078464;28;20428;-75
2024/02/11 08:45:38;;;;;;;6.13;1.92;;;;;;;13.58;64.25;91901.53;5076881;28;20062;-74
2024/02/11 08:48:06;;;;;;;10.85;2.63;;;;;;;13.62;64.14;91915.44;5077626;28;20056;-74
2024/02/11 08:50:33;;;;;;;11.52;2.22;;;;;;;13.39;64.16;91872.09;5076494;28;20050;-74
2024/02/11 08:53:00;;;;;;;8.70;2.63;;;;;;;13.54;63.67;91891.97;5074031;28;20039;-74
2024/02/11 08:55:30;;;;;;;8.10;3.08;;;;;;;13.63;63.54;91903.31;5071290;28;20052;-74
2024/02/11 08:57:59;;;;;;;9.65;3.00;;;;;;;13.67;63.51;91890.66;5072460;28;20139;-74
2024/02/11 09:00:26;;;;;;;4.95;1.90;;;;;;;13.68;63.33;91907.69;5071323;28;20052;-72
2024/02/11 09:02:53;;;;;;;8.40;2.42;;;;;;;13.76;63.06;91907.16;5070949;28;20070;-72
2024/02/11 09:05:22;;;;;;;8.77;3.08;;;;;;;13.80;62.78;91925.47;5069156;28;20052;-72
2024/02/11 09:07:49;;;;;;;10.85;2.80;;;;;;;13.79;63.15;91908.47;5071999;28;20485;-72
2024/02/11 09:10:17;;;;;;;6.82;2.30;;;;;;;13.78;62.94;91919.81;5070494;28;20135;-72
2024/02/11 09:12:45;;;;;;;9.48;3.00;;;;;;;13.82;62.94;91913.88;5087759;28;20052;-72
2024/02/11 09:15:14;;;;;;;7.57;2.08;;;;;;;13.75;62.68;91908.22;5074628;28;20142;-72
2024/02/11 09:17:45;;;;;;;10.23;2.88;;;;;;;13.62;62.64;91896.63;5068625;28;20041;-73
2024/02/11 09:20:14;;;;;;;17.20;2.97;;;;;;;13.68;62.58;91913.63;5069217;28;20056;-72
2024/02/11 09:22:41;;;;;;;11.55;3.03;;;;;;;13.70;62.15;91913.38;5069336;28;20041;-72
2024/02/11 09:25:09;;;;;;;12.73;2.75;;;;;;;13.79;62.23;91926.53;5068997;28;20486;-72
2024/02/11 09:27:36;;;;;;;7.05;2.15;;;;;;;13.58;61.48;91906.69;5075301;28;20044;-72
2024/02/11 09:30:07;;;;;;;7.90;2.45;;;;;;;13.73;60.83;91939.44;5081765;28;20056;-72
2024/02/11 09:32:34;;;;;;;5.15;1.92;;;;;;;13.60;61.35;91945.09;5079557;28;20049;-73
2024/02/11 09:35:02;;;;;;;5.88;1.75;;;;;;;13.58;60.94;91947.97;5071322;28;20062;-72
2024/02/11 09:37:31;;;;;;;5.93;2.00;;;;;;;13.57;61.11;91946.41;5069582;28;20053;-72
2024/02/11 09:39:58;;;;;;;6.60;2.30;;;;;;;13.58;61.10;91936.84;5071317;28;20554;-72
2024/02/11 09:42:25;;;;;;;7.65;2.67;;;;;;;13.62;60.98;91945.63;5079537;28;20052;-72
2024/02/11 09:44:54;;;;;;;10.70;2.60;;;;;;;13.52;61.08;91946.41;5075051;28;20048;-73
2024/02/11 09:47:23;;;;;;;19.35;4.85;;;;;;;13.57;61.46;91951.56;5072376;28;20049;-73
2024/02/11 09:49:53;;;;;;;8.82;2.08;;;;;;;13.55;61.35;91927.84;5071259;28;20117;-73
2024/02/11 09:52:21;;;;;;;10.20;2.33;;;;;;;13.52;61.88;91915.44;5087349;28;20044;-72
2024/02/11 09:54:50;;;;;;;9.57;2.90;;;;;;;13.58;62.29;91924.75;5078335;28;20125;-72
2024/02/11 09:57:17;;;;;;;11.70;3.08;;;;;;;13.49;61.79;91897.91;5071446;28;20056;-72
2024/02/11 09:59:44;;;;;;;9.73;2.90;;;;;;;13.58;62.11;91900.75;5071870;28;20392;-73
2024/02/11 10:02:17;;;;;;;10.88;2.40;;;;;;;13.58;62.03;91903.31;5071333;28;20420;-73
2024/02/11 10:04:47;;;;;;;13.40;2.45;;;;;;;13.57;62.53;91897.38;5081220;28;20048;-73
2024/02/11 10:07:26;;;;;;;12.05;2.00;;;;;;;13.53;62.94;91882.69;5083301;28;20504;-73
2024/02/11 10:09:56;;;;;;;8.70;2.92;;;;;;;13.47;62.91;91861.28;5067115;28;20473;-72
2024/02/11 10:12:26;;;;;;;12.50;3.25;;;;;;;13.60;62.85;91860.75;5069573;28;20054;-72
2024/02/11 10:14:54;;;;;;;23.00;3.45;;;;;;;13.57;62.55;91876.72;5068912;28;20072;-73
2024/02/11 10:17:22;;;;;;;6.97;2.25;;;;;;;13.61;62.65;91866.69;5071915;28;20555;-72
2024/02/11 10:19:52;;;;;;;12.45;2.88;;;;;;;13.52;62.52;91838.03;5067453;28;20587;-72
2024/02/11 10:22:19;;;;;;;9.05;2.65;;;;;;;13.65;62.76;91833.41;5081808;28;20110;-72
2024/02/11 10:24:45;;;;;;;12.68;2.30;;;;;;;13.56;62.49;91833.91;5069586;28;20040;-72
2024/02/11 10:27:14;;;;;;;8.35;2.25;;;;;;;13.52;62.88;91801.94;5070634;28;20052;-72
2024/02/11 10:29:41;;;;;;;10.10;2.67;;;;;;;13.50;63.89;91804.00;5075253;28;20052;-72
2024/02/11 10:32:13;;;;;;;5.97;1.92;;;;;;;13.56;64.09;91809.94;5075010;28;20048;-72
2024/02/11 10:34:41;;;;;;;7.32;2.30;;;;;;;13.39;64.70;91797.31;5071021;28;20101;-72
2024/02/11 10:37:10;;;;;;;15.40;3.08;;;;;;;13.29;65.22;91792.94;5073252;28;20052;-72
2024/02/11 10:39:40;;;;;;;7.85;2.53;;;;;;;13.28;65.31;91804.31;5072172;28;20044;-72
2024/02/11 10:42:10;;;;;;;7.40;2.40;;;;;;;13.36;65.00;91801.97;5073149;28;20134;-72
2024/02/11 10:44:39;;;;;;;11.70;2.35;;;;;;;13.26;65.03;91776.19;5076927;28;20098;-72
2024/02/11 10:47:07;;;;;;;17.40;2.85;;;;;;;13.43;64.49;91778.47;5069454;28;20060;-72
2024/02/11 10:49:34;;;;;;;6.32;1.95;;;;;;;13.51;64.20;91777.16;5070229;28;20057;-72
2024/02/11 10:52:06;;;;;;;6.72;2.17;;;;;;;13.60;63.87;91777.41;5068315;28;20454;-72
2024/02/11 10:54:41;;;;;;;9.63;1.80;;;;;;;13.74;63.29;91798.25;5068463;28;20076;-72
2024/02/11 10:57:13;;;;;;;7.90;1.73;;;;;;;13.72;62.59;91790.00;5073532;28;20044;-72
2024/02/11 10:59:45;;;;;;;9.38;2.58;;;;;;;13.73;62.25;91791.56;5073979;28;20476;-72
2024/02/11 11:02:14;;;;;;;13.18;2.60;;;;;;;13.67;62.22;91795.19;5074011;28;20040;-72
2024/02/11 11:04:44;;;;;;;8.32;2.15;;;;;;;13.75;61.78;91798.00;5069039;28;20044;-72
2024/02/11 11:07:15;;;;;;;7.88;2.33;;;;;;;13.91;61.35;91800.53;5072243;28;20056;-73
2024/02/11 11:09:45;;;;;;;7.28;1.80;;;;;;;13.73;61.43;91797.50;5076422;28;20041;-73
2024/02/11 11:12:16;;;;;;;8.90;2.17;;;;;;;13.55;61.44;91767.88;5075353;28;20086;-73
2024/02/11 11:14:44;;;;;;;7.57;2.42;;;;;;;13.67;62.13;91810.66;5069480;28;20121;-72
2024/02/11 11:17:19;;;;;;;10.27;2.10;;;;;;;13.46;62.10;91757.34;5068865;28;20051;-72
2024/02/11 11:19:49;;;;;;;7.25;1.98;;;;;;;13.72;61.92;91795.19;5069167;28;20132;-72
2024/02/11 11:22:23;;;;;;;11.20;2.33;;;;;;;13.66;62.66;91783.31;5075768;28;20043;-72
2024/02/11 11:24:53;;;;;;;9.57;2.10;;;;;;;13.67;63.37;91798.56;5071722;28;20056;-73
2024/02/11 11:27:22;;;;;;;10.60;3.08;;;;;;;13.84;63.17;91793.06;5070356;28;20066;-72
2024/02/11 11:29:49;;;;;;;7.38;2.00;;;;;;;13.88;63.45;91785.56;5079476;28;20053;-72
2024/02/11 11:32:22;;;;;;;8.50;2.53;;;;;;;13.85;63.44;91776.53;5083414;28;20048;-73
2024/02/11 11:34:49;;;;;;;10.32;2.58;;;;;;;13.96;63.61;91784.22;5071832;28;20051;-73
2024/02/11 11:37:16;;;;;;;16.38;2.40;;;;;;;13.92;63.86;91796.16;5076411;28;20376;-73
2024/02/11 11:39:44;;;;;;;10.77;1.95;;;;;;;14.01;64.06;91802.28;5070971;28;20106;-73